createdAt,value
2024-04-06T00:00:51.561Z,1002.00
2024-04-06T00:02:02.301Z,994.00
2024-04-06T00:02:51.590Z,1014.00
2024-04-06T00:03:53.864Z,1012.00
2024-04-06T00:05:15.314Z,1014.00
2024-04-06T00:05:51.752Z,1014.00
2024-04-06T00:06:51.694Z,1018.00
2024-04-06T00:07:57.040Z,1018.00
2024-04-06T00:08:52.748Z,1014.00
2024-04-06T00:09:51.780Z,1016.00
2024-04-06T00:10:51.791Z,1014.00
2024-04-06T00:11:51.832Z,1012.00
2024-04-06T00:12:51.850Z,1001.00
2024-04-06T00:13:51.975Z,989.00
2024-04-06T00:14:51.899Z,980.00
2024-04-06T00:15:51.929Z,993.00
2024-04-06T00:16:51.951Z,986.00
2024-04-06T00:17:51.994Z,989.00
2024-04-06T00:18:52.023Z,993.00
2024-04-06T00:19:52.057Z,990.00
2024-04-06T00:20:52.083Z,988.00
2024-04-06T00:21:52.223Z,978.00
2024-04-06T00:22:52.138Z,975.00
2024-04-06T00:23:52.162Z,970.00
2024-04-06T00:24:52.194Z,959.00
2024-04-06T00:25:52.211Z,957.00
2024-04-06T00:27:06.791Z,933.00
2024-04-06T00:27:52.458Z,934.00
2024-04-06T00:28:52.521Z,938.00
2024-04-06T00:30:16.805Z,938.00
2024-04-06T00:30:52.631Z,934.00
2024-04-06T00:31:52.634Z,939.00
2024-04-06T00:33:15.324Z,945.00
2024-04-06T00:33:52.671Z,934.00
2024-04-06T00:34:52.702Z,941.00
2024-04-06T00:35:52.731Z,949.00
2024-04-06T00:36:52.746Z,956.00
2024-04-06T00:37:52.779Z,963.00
2024-04-06T00:38:52.806Z,954.00
2024-04-06T00:39:52.817Z,960.00
2024-04-06T00:40:52.844Z,957.00
2024-04-06T00:41:52.878Z,951.00
2024-04-06T00:42:52.903Z,948.00
2024-04-06T00:43:52.931Z,959.00
2024-04-06T00:44:52.958Z,954.00
2024-04-06T00:45:53.002Z,964.00
2024-04-06T00:46:53.012Z,963.00
2024-04-06T00:47:53.039Z,949.00
2024-04-06T00:48:53.051Z,950.00
2024-04-06T00:49:53.079Z,948.00
2024-04-06T00:50:53.103Z,943.00
2024-04-06T00:51:53.162Z,938.00
2024-04-06T00:52:53.144Z,938.00
2024-04-06T00:53:53.181Z,932.00
2024-04-06T00:54:56.315Z,936.00
2024-04-06T00:55:53.237Z,952.00
2024-04-06T00:56:53.263Z,929.00
2024-04-06T00:58:20.813Z,940.00
2024-04-06T00:58:53.311Z,941.00
2024-04-06T00:59:53.335Z,945.00
2024-04-06T01:00:53.358Z,950.00
2024-04-06T01:02:04.051Z,960.00
2024-04-06T01:02:54.433Z,942.00
2024-04-06T01:03:53.445Z,948.00
2024-04-06T01:04:53.482Z,956.00
2024-04-06T01:05:53.514Z,980.00
2024-04-06T01:06:53.546Z,1012.00
2024-04-06T01:07:53.585Z,1018.00
2024-04-06T01:08:53.612Z,1022.00
2024-04-06T01:09:53.624Z,1026.00
2024-04-06T01:10:53.666Z,1027.00
2024-04-06T01:11:53.724Z,1029.00
2024-04-06T01:12:53.732Z,1029.00
2024-04-06T01:13:53.736Z,1029.00
2024-04-06T01:14:53.770Z,1041.00
2024-04-06T01:15:53.793Z,1035.00
2024-04-06T01:17:00.822Z,1025.00
2024-04-06T01:17:53.845Z,1026.00
2024-04-06T01:18:53.882Z,1028.00
2024-04-06T01:19:53.935Z,1031.00
2024-04-06T01:20:53.941Z,1030.00
2024-04-06T01:21:53.978Z,1023.00
2024-04-06T01:23:08.812Z,1019.00
2024-04-06T01:23:54.030Z,1020.00
2024-04-06T01:24:54.064Z,1023.00
2024-04-06T01:26:15.107Z,1023.00
2024-04-06T01:26:54.113Z,1020.00
2024-04-06T01:27:54.149Z,1025.00
2024-04-06T01:28:54.169Z,1028.00
2024-04-06T01:29:54.203Z,1032.00
2024-04-06T01:30:54.237Z,1033.00
2024-04-06T01:31:54.259Z,1023.00
2024-04-06T01:32:54.288Z,1012.00
2024-04-06T01:33:54.322Z,1000.00
2024-04-06T01:34:54.357Z,991.00
2024-04-06T01:35:54.391Z,983.00
2024-04-06T01:36:54.450Z,971.00
2024-04-06T01:37:54.461Z,971.00
2024-04-06T01:38:54.487Z,961.00
2024-04-06T01:39:54.523Z,961.00
2024-04-06T01:40:54.567Z,958.00
2024-04-06T01:41:54.586Z,951.00
2024-04-06T01:42:54.623Z,948.00
2024-04-06T01:43:54.648Z,941.00
2024-04-06T01:44:59.826Z,943.00
2024-04-06T01:45:54.707Z,944.00
2024-04-06T01:46:54.739Z,944.00
2024-04-06T01:48:09.322Z,944.00
2024-04-06T01:48:54.991Z,945.00
2024-04-06T01:49:55.055Z,950.00
2024-04-06T01:51:22.824Z,965.00
2024-04-06T01:51:55.134Z,945.00
2024-04-06T01:52:55.165Z,957.00
2024-04-06T01:54:19.339Z,979.00
2024-04-06T01:54:55.211Z,946.00
2024-04-06T01:55:55.239Z,960.00
2024-04-06T01:56:55.269Z,981.00
2024-04-06T01:57:55.301Z,1006.00
2024-04-06T01:58:55.317Z,1037.00
2024-04-06T01:59:55.376Z,1054.00
2024-04-06T02:00:55.393Z,1049.00
2024-04-06T02:01:55.427Z,1045.00
2024-04-06T02:02:55.446Z,1031.00
2024-04-06T02:03:55.477Z,1036.00
2024-04-06T02:04:55.525Z,1044.00
2024-04-06T02:05:55.551Z,1040.00
2024-04-06T02:06:55.600Z,1040.00
2024-04-06T02:07:55.622Z,1035.00
2024-04-06T02:08:55.662Z,1048.00
2024-04-06T02:09:55.728Z,1046.00
2024-04-06T02:10:55.858Z,1050.00
2024-04-06T02:11:55.845Z,1059.00
2024-04-06T02:12:55.897Z,1059.00
2024-04-06T02:13:55.859Z,1055.00
2024-04-06T02:14:55.899Z,1060.00
2024-04-06T02:16:10.837Z,1071.00
2024-04-06T02:16:55.913Z,1072.00
2024-04-06T02:17:55.951Z,1075.00
2024-04-06T02:19:10.842Z,1082.00
2024-04-06T02:19:56.004Z,1072.00
2024-04-06T02:20:56.031Z,1077.00
2024-04-06T02:21:56.070Z,1084.00
2024-04-06T02:22:56.101Z,1092.00
2024-04-06T02:23:56.138Z,1103.00
2024-04-06T02:24:56.166Z,1102.00
2024-04-06T02:25:56.208Z,1098.00
2024-04-06T02:26:56.243Z,1090.00
2024-04-06T02:27:56.273Z,1086.00
2024-04-06T02:28:56.320Z,1086.00
2024-04-06T02:29:56.356Z,1077.00
2024-04-06T02:30:57.338Z,1066.00
2024-04-06T02:31:56.417Z,1064.00
2024-04-06T02:32:56.464Z,1073.00
2024-04-06T02:33:56.494Z,1069.00
2024-04-06T02:35:01.846Z,1066.00
2024-04-06T02:35:56.562Z,1067.00
2024-04-06T02:36:56.592Z,1067.00
2024-04-06T02:37:56.648Z,1064.00
2024-04-06T02:38:56.699Z,1066.00
2024-04-06T02:39:56.774Z,1056.00
2024-04-06T02:40:58.368Z,1050.00
2024-04-06T02:41:56.852Z,1050.00
2024-04-06T02:42:56.913Z,1037.00
2024-04-06T02:44:21.352Z,1037.00
2024-04-06T02:44:57.005Z,1038.00
2024-04-06T02:45:57.040Z,1042.00
2024-04-06T02:47:32.861Z,1046.00
2024-04-06T02:47:57.094Z,1038.00
2024-04-06T02:48:57.174Z,1045.00
2024-04-06T02:49:57.160Z,1055.00
2024-04-06T02:50:57.191Z,1067.00
2024-04-06T02:51:57.228Z,1081.00
2024-04-06T02:52:57.260Z,1077.00
2024-04-06T02:53:57.295Z,1067.00
2024-04-06T02:54:57.350Z,1062.00
2024-04-06T02:55:57.370Z,1061.00
2024-04-06T02:56:57.400Z,1061.00
2024-04-06T02:57:57.435Z,1063.00
2024-04-06T02:58:57.489Z,1070.00
2024-04-06T02:59:57.520Z,1061.00
2024-04-06T03:00:57.541Z,1071.00
2024-04-06T03:01:57.571Z,1070.00
2024-04-06T03:03:04.353Z,1065.00
2024-04-06T03:03:57.634Z,1065.00
2024-04-06T03:04:57.673Z,1066.00
2024-04-06T03:06:00.365Z,1071.00
2024-04-06T03:06:57.809Z,1065.00
2024-04-06T03:07:57.779Z,1066.00
2024-04-06T03:09:18.841Z,1062.00
2024-04-06T03:09:57.838Z,1066.00
2024-04-06T03:10:57.873Z,1069.00
2024-04-06T03:12:18.921Z,1073.00
2024-04-06T03:12:57.939Z,1066.00
2024-04-06T03:13:57.959Z,1072.00
2024-04-06T03:14:58.002Z,1079.00
2024-04-06T03:15:58.047Z,1079.00
2024-04-06T03:16:58.073Z,1085.00
2024-04-06T03:17:58.107Z,1085.00
2024-04-06T03:18:58.144Z,1081.00
2024-04-06T03:19:58.183Z,1076.00
2024-04-06T03:20:58.216Z,1076.00
2024-04-06T03:21:58.252Z,1077.00
2024-04-06T03:22:58.288Z,1073.00
2024-04-06T03:23:58.317Z,1067.00
2024-04-06T03:24:58.351Z,1076.00
2024-04-06T03:25:58.380Z,1078.00
2024-04-06T03:26:58.406Z,1077.00
2024-04-06T03:27:58.454Z,1082.00
2024-04-06T03:28:58.470Z,1076.00
2024-04-06T03:29:58.508Z,1086.00
2024-04-06T03:30:58.532Z,1076.00
2024-04-06T03:31:58.567Z,1083.00
2024-04-06T03:32:58.604Z,1093.00
2024-04-06T03:34:01.371Z,1086.00
2024-04-06T03:34:58.660Z,1087.00
2024-04-06T03:35:58.691Z,1086.00
2024-04-06T03:37:13.365Z,1089.00
2024-04-06T03:37:59.001Z,1088.00
2024-04-06T03:38:59.053Z,1092.00
2024-04-06T03:40:25.377Z,1098.00
2024-04-06T03:40:59.136Z,1088.00
2024-04-06T03:41:59.158Z,1095.00
2024-04-06T03:42:59.196Z,1106.00
2024-04-06T03:43:59.235Z,1123.00
2024-04-06T03:44:59.273Z,1129.00
2024-04-06T03:45:59.316Z,1139.00
2024-04-06T03:46:59.329Z,1133.00
2024-04-06T03:47:59.362Z,1130.00
2024-04-06T03:48:59.411Z,1119.00
2024-04-06T03:49:59.461Z,1121.00
2024-04-06T03:50:59.509Z,1120.00
2024-04-06T03:51:59.560Z,1113.00
2024-04-06T03:52:59.613Z,1105.00
2024-04-06T03:53:59.662Z,1100.00
2024-04-06T03:54:59.717Z,1099.00
2024-04-06T03:56:06.372Z,1099.00
2024-04-06T03:56:59.806Z,1099.00
2024-04-06T03:57:59.828Z,1099.00
2024-04-06T03:58:59.874Z,1101.00
2024-04-06T03:59:59.912Z,1099.00
2024-04-06T04:00:59.931Z,1101.00
2024-04-06T04:01:59.972Z,1097.00
2024-04-06T04:02:59.997Z,1086.00
2024-04-06T04:04:00.041Z,1086.00
2024-04-06T04:05:24.380Z,1093.00
2024-04-06T04:06:00.098Z,1094.00
2024-04-06T04:07:00.119Z,1099.00
2024-04-06T04:08:00.156Z,1102.00
2024-04-06T04:09:00.173Z,1110.00
2024-04-06T04:10:00.225Z,1107.00
2024-04-06T04:11:00.293Z,1114.00
2024-04-06T04:12:00.260Z,1101.00
2024-04-06T04:13:00.299Z,1096.00
2024-04-06T04:14:00.311Z,1089.00
2024-04-06T04:15:00.350Z,1091.00
2024-04-06T04:16:00.371Z,1088.00
2024-04-06T04:17:00.406Z,1086.00
2024-04-06T04:18:00.440Z,1088.00
2024-04-06T04:19:00.470Z,1086.00
2024-04-06T04:20:00.509Z,1087.00
2024-04-06T04:21:00.519Z,1086.00
2024-04-06T04:22:00.564Z,1091.00
2024-04-06T04:23:00.585Z,1083.00
2024-04-06T04:24:01.383Z,1079.00
2024-04-06T04:25:00.643Z,1085.00
2024-04-06T04:26:00.665Z,1079.00
2024-04-06T04:27:03.388Z,1081.00
2024-04-06T04:28:00.721Z,1082.00
2024-04-06T04:29:00.760Z,1082.00
2024-04-06T04:30:02.395Z,1080.00
2024-04-06T04:31:00.800Z,1082.00
2024-04-06T04:32:00.834Z,1082.00
2024-04-06T04:33:21.883Z,1083.00
2024-04-06T04:34:00.898Z,1083.00
2024-04-06T04:35:00.947Z,1088.00
2024-04-06T04:36:00.984Z,1094.00
2024-04-06T04:37:01.024Z,1096.00
2024-04-06T04:38:01.035Z,1100.00
2024-04-06T04:39:01.072Z,1090.00
2024-04-06T04:40:01.141Z,1089.00
2024-04-06T04:41:01.145Z,1082.00
2024-04-06T04:42:01.172Z,1081.00
2024-04-06T04:43:01.211Z,1074.00
2024-04-06T04:44:06.619Z,1075.00
2024-04-06T04:45:02.379Z,1075.00
2024-04-06T04:46:01.315Z,1076.00
2024-04-06T04:47:01.325Z,1078.00
2024-04-06T04:48:01.364Z,1073.00
2024-04-06T04:49:01.382Z,1078.00
2024-04-06T04:50:01.414Z,1078.00
2024-04-06T04:51:01.450Z,1082.00
2024-04-06T04:52:16.399Z,1083.00
2024-04-06T04:53:01.534Z,1084.00
2024-04-06T04:54:01.550Z,1088.00
2024-04-06T04:55:15.917Z,1095.00
2024-04-06T04:56:01.641Z,1085.00
2024-04-06T04:57:01.652Z,1091.00
2024-04-06T04:58:22.717Z,1100.00
2024-04-06T04:59:01.718Z,1085.00
2024-04-06T05:00:01.760Z,1090.00
2024-04-06T05:01:29.633Z,1102.00
2024-04-06T05:02:01.867Z,1085.00
2024-04-06T05:03:01.880Z,1096.00
2024-04-06T05:04:01.877Z,1114.00
2024-04-06T05:05:01.918Z,1128.00
2024-04-06T05:06:01.949Z,1146.00
2024-04-06T05:07:01.996Z,1142.00
2024-04-06T05:08:02.015Z,1129.00
2024-04-06T05:09:02.046Z,1111.00
2024-04-06T05:10:02.083Z,1102.00
2024-04-06T05:11:02.121Z,1090.00
2024-04-06T05:12:02.140Z,1080.00
2024-04-06T05:13:02.171Z,1081.00
2024-04-06T05:14:02.208Z,1060.00
2024-04-06T05:15:02.241Z,1069.00
2024-04-06T05:16:02.265Z,1058.00
2024-04-06T05:17:04.912Z,1054.00
2024-04-06T05:18:02.550Z,1070.00
2024-04-06T05:19:02.602Z,1058.00
2024-04-06T05:20:13.415Z,1044.00
2024-04-06T05:21:02.681Z,1045.00
2024-04-06T05:22:02.730Z,1047.00
2024-04-06T05:23:17.419Z,1046.00
2024-04-06T05:24:02.798Z,1046.00
2024-04-06T05:25:02.835Z,1049.00
2024-04-06T05:26:17.409Z,1055.00
2024-04-06T05:27:03.076Z,1046.00
2024-04-06T05:28:03.179Z,1052.00
2024-04-06T05:29:03.252Z,1058.00
2024-04-06T05:30:03.350Z,1062.00
2024-04-06T05:31:03.448Z,1055.00
2024-04-06T05:32:03.498Z,1041.00
2024-04-06T05:33:03.544Z,1043.00
2024-04-06T05:34:03.590Z,1038.00
2024-04-06T05:35:03.637Z,1038.00
2024-04-06T05:36:03.695Z,1041.00
2024-04-06T05:37:03.719Z,1041.00
2024-04-06T05:38:03.765Z,1046.00
2024-04-06T05:39:03.812Z,1036.00
2024-04-06T05:40:03.888Z,1030.00
2024-04-06T05:41:03.923Z,1026.00
2024-04-06T05:42:03.957Z,1032.00
2024-04-06T05:43:04.007Z,1027.00
2024-04-06T05:44:06.389Z,1020.00
2024-04-06T05:45:04.100Z,1027.00
2024-04-06T05:46:04.127Z,1037.00
2024-04-06T05:47:04.201Z,1021.00
2024-04-06T05:48:10.922Z,1027.00
2024-04-06T05:49:04.241Z,1028.00
2024-04-06T05:50:04.281Z,1031.00
2024-04-06T05:51:06.924Z,1035.00
2024-04-06T05:52:04.649Z,1028.00
2024-04-06T05:53:04.694Z,1031.00
2024-04-06T05:54:19.426Z,1034.00
2024-04-06T05:55:04.812Z,1028.00
2024-04-06T05:56:04.840Z,1033.00
2024-04-06T05:57:04.876Z,1038.00
2024-04-06T05:58:04.923Z,1044.00
2024-04-06T05:59:04.975Z,1056.00
2024-04-06T06:00:05.019Z,1066.00
2024-04-06T06:01:05.052Z,1061.00
2024-04-06T06:02:05.089Z,1060.00
2024-04-06T06:03:05.098Z,1058.00
2024-04-06T06:04:05.133Z,1059.00
2024-04-06T06:05:05.169Z,1056.00
2024-04-06T06:06:05.200Z,1059.00
2024-04-06T06:07:05.233Z,1067.00
2024-04-06T06:08:05.282Z,1066.00
2024-04-06T06:09:05.294Z,1050.00
2024-04-06T06:10:05.341Z,1072.00
2024-04-06T06:11:05.355Z,1071.00
2024-04-06T06:12:05.383Z,1064.00
2024-04-06T06:13:05.413Z,1064.00
2024-04-06T06:14:05.436Z,1063.00
2024-04-06T06:15:05.523Z,1066.00
2024-04-06T06:16:20.425Z,1066.00
2024-04-06T06:17:05.508Z,1066.00
2024-04-06T06:18:05.847Z,1069.00
2024-04-06T06:19:26.577Z,1070.00
2024-04-06T06:20:05.588Z,1067.00
2024-04-06T06:21:05.663Z,1073.00
2024-04-06T06:22:26.638Z,1086.00
2024-04-06T06:23:05.656Z,1068.00
2024-04-06T06:24:05.669Z,1078.00
2024-04-06T06:25:05.713Z,1094.00
2024-04-06T06:26:05.744Z,1113.00
2024-04-06T06:27:05.754Z,1134.00
2024-04-06T06:28:05.782Z,1135.00
2024-04-06T06:29:05.803Z,1116.00
2024-04-06T06:30:05.862Z,1129.00
2024-04-06T06:31:05.910Z,1126.00
2024-04-06T06:32:05.891Z,1129.00
2024-04-06T06:33:05.914Z,1127.00
2024-04-06T06:34:05.918Z,1116.00
2024-04-06T06:35:05.947Z,1119.00
2024-04-06T06:38:08.934Z,1126.00
2024-04-06T06:41:12.937Z,1126.00
2024-04-06T06:42:06.109Z,1127.00
2024-04-06T06:43:06.145Z,1130.00
2024-04-06T06:44:20.944Z,1132.00
2024-04-06T06:45:06.199Z,1127.00
2024-04-06T06:46:06.221Z,1132.00
2024-04-06T06:47:20.944Z,1138.00
2024-04-06T06:48:06.270Z,1128.00
2024-04-06T06:49:06.320Z,1134.00
2024-04-06T06:50:06.345Z,1140.00
2024-04-06T06:51:06.369Z,1146.00
2024-04-06T06:52:06.397Z,1163.00
2024-04-06T06:53:06.429Z,1143.00
2024-04-06T06:54:06.470Z,1143.00
2024-04-06T06:55:06.497Z,1132.00
2024-04-06T06:56:06.518Z,1121.00
2024-04-06T06:57:06.549Z,1121.00
2024-04-06T06:58:06.584Z,1130.00
2024-04-06T06:59:06.599Z,1115.00
2024-04-06T07:01:06.663Z,1112.00
2024-04-06T07:02:06.682Z,1113.00
2024-04-06T07:03:06.712Z,1100.00
2024-04-06T07:04:06.757Z,1100.00
2024-04-06T07:05:06.767Z,1105.00
2024-04-06T07:06:06.786Z,1106.00
2024-04-06T07:07:08.530Z,1102.00
2024-04-06T07:08:06.830Z,1104.00
2024-04-06T07:09:21.454Z,1103.00
2024-04-06T07:10:08.736Z,1105.00
2024-04-06T07:11:07.173Z,1108.00
2024-04-06T07:12:42.956Z,1113.00
2024-04-06T07:13:07.286Z,1104.00
2024-04-06T07:14:07.284Z,1112.00
2024-04-06T07:15:07.311Z,1124.00
2024-04-06T07:16:07.353Z,1138.00
2024-04-06T07:17:07.363Z,1153.00
2024-04-06T07:18:07.383Z,1156.00
2024-04-06T07:19:07.437Z,1159.00
2024-04-06T07:20:07.438Z,1152.00
2024-04-06T07:21:07.452Z,1142.00
2024-04-06T07:22:07.534Z,1137.00
2024-04-06T07:23:07.506Z,1146.00
2024-04-06T07:24:07.539Z,1136.00
2024-04-06T07:25:07.582Z,1129.00
2024-04-06T07:26:07.580Z,1137.00
2024-04-06T07:27:07.613Z,1133.00
2024-04-06T07:28:07.665Z,1135.00
2024-04-06T07:29:07.667Z,1133.00
2024-04-06T07:30:07.692Z,1131.00
2024-04-06T07:31:14.476Z,1129.00
2024-04-06T07:32:07.729Z,1130.00
2024-04-06T07:33:07.767Z,1131.00
2024-04-06T07:34:08.525Z,1136.00
2024-04-06T07:35:07.823Z,1133.00
2024-04-06T07:36:07.834Z,1143.00
2024-04-06T07:37:31.457Z,1140.00
2024-04-06T07:38:08.091Z,1141.00
2024-04-06T07:40:36.971Z,1152.00
2024-04-06T07:41:08.205Z,1142.00
2024-04-06T07:42:08.231Z,1149.00
2024-04-06T07:43:08.300Z,1158.00
2024-04-06T07:44:08.281Z,1171.00
2024-04-06T07:45:08.294Z,1172.00
2024-04-06T07:46:08.351Z,1159.00
2024-04-06T07:47:08.345Z,1150.00
2024-04-06T07:48:08.468Z,1140.00
2024-04-06T07:49:08.423Z,1132.00
2024-04-06T07:50:08.431Z,1119.00
2024-04-06T07:51:08.442Z,1112.00
2024-04-06T07:52:08.522Z,1107.00
2024-04-06T07:53:08.483Z,1095.00
2024-04-06T07:54:08.509Z,1088.00
2024-04-06T07:55:08.617Z,1076.00
2024-04-06T07:56:08.647Z,1056.00
2024-04-06T07:57:08.716Z,1054.00
2024-04-06T07:58:08.780Z,1056.00
2024-04-06T07:59:29.860Z,1040.00
2024-04-06T08:00:08.869Z,1041.00
2024-04-06T08:01:08.921Z,1043.00
2024-04-06T08:02:23.480Z,1045.00
2024-04-06T08:03:09.113Z,1041.00
2024-04-06T08:04:09.243Z,1040.00
2024-04-06T08:05:33.496Z,1026.00
2024-04-06T08:06:09.290Z,1040.00
2024-04-06T08:07:09.380Z,1041.00
2024-04-06T08:08:44.974Z,1024.00
2024-04-06T08:09:09.601Z,1040.00
2024-04-06T08:10:09.699Z,1043.00
2024-04-06T08:11:09.740Z,1040.00
2024-04-06T08:12:09.826Z,1010.00
2024-04-06T08:13:09.904Z,980.00
2024-04-06T08:14:20.539Z,974.00
2024-04-06T08:15:10.986Z,955.00
2024-04-06T08:16:10.004Z,939.00
2024-04-06T08:17:10.026Z,921.00
2024-04-06T08:18:10.051Z,909.00
2024-04-06T08:19:10.091Z,877.00
2024-04-06T08:20:10.130Z,876.00
2024-04-06T08:21:10.138Z,854.00
2024-04-06T08:22:10.174Z,848.00
2024-04-06T08:23:11.921Z,822.00
2024-04-06T08:24:24.980Z,813.00
2024-04-06T08:25:10.656Z,814.00
2024-04-06T08:26:10.718Z,814.00
2024-04-06T08:27:17.494Z,802.00
2024-04-06T08:28:10.808Z,788.00
2024-04-06T08:29:10.836Z,773.00
2024-04-06T08:30:10.839Z,761.00
2024-04-06T08:31:10.913Z,757.00
2024-04-06T08:32:10.900Z,738.00
2024-04-06T08:33:25.501Z,723.00
2024-04-06T08:34:11.161Z,724.00
2024-04-06T08:35:11.218Z,721.00
2024-04-06T08:36:11.291Z,711.00
2024-04-06T08:37:11.389Z,715.00
2024-04-06T08:38:11.460Z,693.00
2024-04-06T08:39:11.543Z,673.00
2024-04-06T08:40:11.615Z,670.00
2024-04-06T08:41:11.703Z,668.00
2024-04-06T08:42:11.775Z,666.00
2024-04-06T08:43:11.892Z,659.00
2024-04-06T08:44:11.936Z,661.00
2024-04-06T08:45:12.059Z,665.00
2024-04-06T08:46:12.117Z,661.00
2024-04-06T08:47:12.177Z,657.00
2024-04-06T08:48:12.256Z,653.00
2024-04-06T08:49:12.334Z,649.00
2024-04-06T08:50:12.464Z,646.00
2024-04-06T08:51:12.500Z,642.00
2024-04-06T08:52:12.593Z,643.00
2024-04-06T08:53:12.658Z,644.00
2024-04-06T08:54:12.739Z,642.00
2024-04-06T08:55:18.029Z,640.00
2024-04-06T08:56:13.567Z,638.00
2024-04-06T08:57:12.861Z,635.00
2024-04-06T08:58:27.494Z,637.00
2024-04-06T08:59:13.148Z,640.00
2024-04-06T09:00:13.234Z,640.00
2024-04-06T09:01:48.994Z,641.00
2024-04-06T09:02:13.335Z,640.00
2024-04-06T09:03:13.365Z,642.00
2024-04-06T09:04:13.382Z,645.00
2024-04-06T09:05:13.444Z,645.00
2024-04-06T09:06:13.445Z,646.00
2024-04-06T09:07:13.549Z,642.00
2024-04-06T09:08:13.510Z,634.00
2024-04-06T09:09:13.536Z,631.00
2024-04-06T09:10:13.590Z,629.00
2024-04-06T09:11:13.607Z,627.00
2024-04-06T09:12:13.623Z,625.00
2024-04-06T09:13:13.661Z,622.00
2024-04-06T09:14:13.673Z,625.00
2024-04-06T09:15:13.696Z,615.00
2024-04-06T09:16:13.763Z,615.00
2024-04-06T09:17:13.772Z,613.00
2024-04-06T09:18:13.783Z,607.00
2024-04-06T09:19:13.821Z,606.00
2024-04-06T09:20:24.505Z,605.00
2024-04-06T09:21:13.866Z,605.00
2024-04-06T09:22:13.939Z,606.00
2024-04-06T09:23:28.500Z,606.00
2024-04-06T09:24:14.157Z,605.00
2024-04-06T09:25:14.300Z,606.00
2024-04-06T09:26:28.509Z,607.00
2024-04-06T09:27:14.331Z,605.00
2024-04-06T09:28:14.382Z,606.00
2024-04-06T09:29:29.009Z,606.00
2024-04-06T09:30:14.407Z,605.00
2024-04-06T09:31:14.462Z,606.00
2024-04-06T09:32:14.443Z,608.00
2024-04-06T09:33:14.473Z,612.00
2024-04-06T09:34:14.581Z,612.00
2024-04-06T09:35:14.562Z,606.00
2024-04-06T09:36:14.561Z,607.00
2024-04-06T09:37:14.579Z,606.00
2024-04-06T09:38:14.586Z,600.00
2024-04-06T09:39:14.625Z,602.00
2024-04-06T09:40:14.722Z,600.00
2024-04-06T09:41:14.668Z,603.00
2024-04-06T09:42:14.684Z,600.00
2024-04-06T09:43:14.740Z,600.00
2024-04-06T09:44:14.773Z,609.00
2024-04-06T09:45:14.806Z,606.00
2024-04-06T09:46:14.837Z,603.00
2024-04-06T09:47:14.818Z,613.00
2024-04-06T09:48:21.514Z,610.00
2024-04-06T09:49:14.895Z,610.00
2024-04-06T09:50:14.921Z,611.00
2024-04-06T09:51:35.920Z,612.00
2024-04-06T09:52:14.957Z,611.00
2024-04-06T09:53:14.960Z,612.00
2024-04-06T09:54:36.008Z,614.00
2024-04-06T09:55:15.086Z,611.00
2024-04-06T09:56:15.039Z,612.00
2024-04-06T09:57:15.066Z,616.00
2024-04-06T09:58:15.136Z,614.00
2024-04-06T09:59:15.112Z,614.00
2024-04-06T10:00:15.280Z,614.00
2024-04-06T10:01:15.225Z,607.00
2024-04-06T10:02:15.228Z,603.00
2024-04-06T10:03:15.227Z,605.00
2024-04-06T10:04:15.265Z,600.00
2024-04-06T10:05:15.292Z,605.00
2024-04-06T10:06:15.327Z,603.00
2024-04-06T10:07:15.382Z,600.00
2024-04-06T10:08:15.397Z,600.00
2024-04-06T10:09:15.427Z,602.00
2024-04-06T10:10:15.462Z,603.00
2024-04-06T10:11:15.494Z,601.00
2024-04-06T10:12:15.545Z,600.00
2024-04-06T10:13:15.563Z,600.00
2024-04-06T10:14:17.981Z,605.00
2024-04-06T10:15:15.627Z,605.00
2024-04-06T10:16:22.532Z,595.00
2024-04-06T10:17:15.684Z,606.00
2024-04-06T10:18:15.695Z,601.00
2024-04-06T10:19:30.523Z,603.00
2024-04-06T10:20:15.747Z,606.00
2024-04-06T10:21:15.772Z,605.00
2024-04-06T10:22:15.816Z,605.00
2024-04-06T10:23:15.831Z,599.00
2024-04-06T10:24:15.856Z,598.00
2024-04-06T10:25:15.910Z,602.00
2024-04-06T10:26:15.920Z,605.00
2024-04-06T10:27:15.955Z,600.00
2024-04-06T10:28:15.990Z,602.00
2024-04-06T10:29:15.998Z,603.00
2024-04-06T10:30:16.030Z,600.00
2024-04-06T10:31:16.082Z,607.00
2024-04-06T10:32:16.085Z,611.00
2024-04-06T10:33:16.108Z,609.00
2024-04-06T10:34:16.162Z,618.00
2024-04-06T10:35:16.161Z,624.00
2024-04-06T10:36:16.190Z,619.00
2024-04-06T10:37:16.215Z,628.00
2024-04-06T10:38:16.252Z,628.00
2024-04-06T10:39:16.280Z,627.00
2024-04-06T10:40:16.377Z,629.00
2024-04-06T10:41:16.619Z,638.00
2024-04-06T10:42:16.375Z,639.00
2024-04-06T10:43:16.411Z,641.00
2024-04-06T10:44:37.591Z,642.00
2024-04-06T10:45:16.454Z,643.00
2024-04-06T10:46:16.489Z,645.00
2024-04-06T10:47:31.071Z,651.00
2024-04-06T10:48:16.700Z,643.00
2024-04-06T10:49:16.782Z,647.00
2024-04-06T10:50:38.544Z,655.00
2024-04-06T10:51:16.896Z,643.00
2024-04-06T10:52:16.998Z,649.00
2024-04-06T10:53:16.936Z,661.00
2024-04-06T10:54:16.969Z,712.00
2024-04-06T10:55:17.060Z,790.00
2024-04-06T10:56:17.014Z,839.00
2024-04-06T10:57:17.049Z,854.00
2024-04-06T10:58:17.082Z,850.00
2024-04-06T10:59:17.094Z,875.00
2024-04-06T11:00:17.121Z,903.00
2024-04-06T11:01:17.161Z,933.00
2024-04-06T11:02:17.181Z,947.00
2024-04-06T11:03:17.209Z,952.00
2024-04-06T11:04:17.241Z,964.00
2024-04-06T11:05:17.243Z,984.00
2024-04-06T11:06:17.278Z,988.00
2024-04-06T11:07:17.318Z,977.00
2024-04-06T11:08:17.340Z,941.00
2024-04-06T11:09:32.048Z,927.00
2024-04-06T11:10:17.433Z,928.00
2024-04-06T11:11:17.419Z,931.00
2024-04-06T11:12:39.444Z,932.00
2024-04-06T11:13:17.487Z,929.00
2024-04-06T11:14:17.474Z,933.00
2024-04-06T11:15:32.048Z,931.00
2024-04-06T11:16:17.755Z,928.00
2024-04-06T11:17:17.767Z,929.00
2024-04-06T11:18:17.848Z,915.00
2024-04-06T11:19:17.933Z,904.00
2024-04-06T11:20:17.964Z,957.00
2024-04-06T11:21:18.042Z,977.00
2024-04-06T11:22:18.135Z,989.00
2024-04-06T11:23:18.205Z,965.00
2024-04-06T11:24:18.257Z,926.00
2024-04-06T11:25:18.407Z,978.00
2024-04-06T11:26:18.406Z,1011.00
2024-04-06T11:27:18.485Z,1042.00
2024-04-06T11:28:18.582Z,1029.00
2024-04-06T11:29:18.617Z,1036.00
2024-04-06T11:30:18.690Z,1032.00
2024-04-06T11:31:18.808Z,1022.00
2024-04-06T11:32:18.820Z,1013.00
2024-04-06T11:33:18.896Z,1018.00
2024-04-06T11:34:19.022Z,977.00
2024-04-06T11:35:19.028Z,938.00
2024-04-06T11:36:19.101Z,916.00
2024-04-06T11:37:22.110Z,897.00
2024-04-06T11:38:19.186Z,876.00
2024-04-06T11:39:19.209Z,857.00
2024-04-06T11:40:34.055Z,894.00
2024-04-06T11:41:19.257Z,895.00
2024-04-06T11:42:19.283Z,884.00
2024-04-06T11:43:40.334Z,855.00
2024-04-06T11:44:19.321Z,895.00
2024-04-06T11:45:19.351Z,865.00
2024-04-06T11:46:19.412Z,871.00
2024-04-06T11:47:19.418Z,843.00
2024-04-06T11:48:19.479Z,832.00
2024-04-06T11:49:19.505Z,813.00
2024-04-06T11:50:19.475Z,805.00
2024-04-06T11:51:19.500Z,798.00
2024-04-06T11:52:19.564Z,776.00
2024-04-06T11:53:19.556Z,768.00
2024-04-06T11:54:19.578Z,758.00
2024-04-06T11:55:19.651Z,751.00
2024-04-06T11:56:19.624Z,733.00
2024-04-06T11:57:19.647Z,732.00
2024-04-06T11:58:19.748Z,718.00
2024-04-06T11:59:19.691Z,714.00
2024-04-06T12:00:22.150Z,704.00
2024-04-06T12:01:19.883Z,704.00
2024-04-06T12:02:19.901Z,696.00
2024-04-06T12:03:19.971Z,696.00
2024-04-06T12:04:20.084Z,694.00
2024-04-06T12:05:27.075Z,696.00
2024-04-06T12:06:20.120Z,698.00
2024-04-06T12:07:20.225Z,698.00
2024-04-06T12:08:41.170Z,690.00
2024-04-06T12:09:20.244Z,705.00
2024-04-06T12:10:20.226Z,705.00
2024-04-06T12:11:20.229Z,707.00
2024-04-06T12:12:20.254Z,696.00
2024-04-06T12:13:20.368Z,689.00
2024-04-06T12:14:20.299Z,683.00
2024-04-06T12:15:20.317Z,672.00
2024-04-06T12:16:20.388Z,669.00
2024-04-06T12:17:20.374Z,668.00
2024-04-06T12:18:20.399Z,659.00
2024-04-06T12:19:20.438Z,658.00
2024-04-06T12:20:20.460Z,659.00
2024-04-06T12:21:20.481Z,662.00
2024-04-06T12:22:20.523Z,664.00